createdAt,value
2023-09-24T00:01:01.527Z,15.34
2023-09-24T00:03:28.836Z,15.43
2023-09-24T00:05:56.232Z,15.34
2023-09-24T00:08:23.442Z,15.24
2023-09-24T00:10:53.734Z,15.19
2023-09-24T00:13:23.170Z,15.04
2023-09-24T00:15:52.084Z,15.20
2023-09-24T00:18:20.122Z,15.27
2023-09-24T00:20:48.051Z,15.22
2023-09-24T00:23:17.945Z,15.12
2023-09-24T00:25:50.818Z,15.03
2023-09-24T00:28:17.890Z,15.30
2023-09-24T00:30:44.782Z,15.16
2023-09-24T00:33:12.542Z,15.03
2023-09-24T00:35:40.279Z,15.02
2023-09-24T00:38:09.267Z,15.10
2023-09-24T00:40:36.706Z,15.06
2023-09-24T00:43:03.788Z,15.17
2023-09-24T00:45:34.272Z,15.10
2023-09-24T00:48:02.191Z,14.98
2023-09-24T00:50:34.871Z,14.79
2023-09-24T00:53:02.922Z,14.74
2023-09-24T00:55:31.632Z,14.69
2023-09-24T00:57:58.915Z,14.79
2023-09-24T01:00:26.873Z,14.74
2023-09-24T01:02:58.157Z,14.75
2023-09-24T01:05:25.142Z,14.65
2023-09-24T01:07:53.475Z,14.82
2023-09-24T01:10:24.819Z,14.77
2023-09-24T01:12:56.656Z,14.87
2023-09-24T01:15:25.162Z,14.78
2023-09-24T01:17:53.998Z,14.71
2023-09-24T01:20:23.417Z,14.69
2023-09-24T01:22:52.839Z,14.57
2023-09-24T01:25:20.177Z,14.69
2023-09-24T01:27:49.554Z,14.72
2023-09-24T01:30:16.687Z,14.68
2023-09-24T01:37:09.928Z,14.52
2023-09-24T01:39:37.748Z,14.55
2023-09-24T01:42:04.892Z,14.63
2023-09-24T01:44:35.606Z,14.66
2023-09-24T01:47:04.665Z,14.48
2023-09-24T01:49:33.036Z,14.43
2023-09-24T01:52:00.272Z,14.47
2023-09-24T01:54:27.190Z,14.46
2023-09-24T01:56:56.248Z,14.53
2023-09-24T01:59:24.342Z,14.59
2023-09-24T02:01:54.359Z,14.62
2023-09-24T02:04:21.753Z,14.55
2023-09-24T02:06:49.073Z,14.50
2023-09-24T02:09:17.585Z,14.69
2023-09-24T02:11:44.423Z,14.75
2023-09-24T02:14:11.376Z,14.53
2023-09-24T02:16:39.375Z,14.44
2023-09-24T02:19:07.604Z,14.53
2023-09-24T02:21:35.092Z,14.40
2023-09-24T02:24:04.263Z,14.36
2023-09-24T02:26:31.741Z,14.43
2023-09-24T02:28:58.719Z,14.44
2023-09-24T02:31:27.706Z,14.16
2023-09-24T02:33:54.626Z,14.16
2023-09-24T02:36:21.463Z,14.07
2023-09-24T02:38:48.210Z,14.06
2023-09-24T02:41:15.424Z,14.20
2023-09-24T02:43:43.013Z,14.19
2023-09-24T02:46:11.070Z,14.14
2023-09-24T02:48:38.044Z,14.21
2023-09-24T02:51:10.901Z,14.34
2023-09-24T02:53:38.945Z,14.37
2023-09-24T02:56:06.023Z,14.43
2023-09-24T02:58:32.858Z,14.40
2023-09-24T03:01:01.038Z,14.21
2023-09-24T03:03:28.502Z,14.29
2023-09-24T03:05:55.592Z,14.30
2023-09-24T03:08:24.594Z,14.16
2023-09-24T03:10:52.828Z,14.12
2023-09-24T03:13:20.183Z,14.07
2023-09-24T03:15:47.057Z,14.01
2023-09-24T03:18:13.881Z,13.90
2023-09-24T03:20:40.762Z,14.06
2023-09-24T03:23:11.213Z,14.11
2023-09-24T03:25:38.939Z,14.09
2023-09-24T03:28:07.622Z,14.02
2023-09-24T03:30:34.596Z,13.94
2023-09-24T03:33:02.052Z,13.94
2023-09-24T03:35:30.665Z,13.89
2023-09-24T03:37:58.286Z,13.83
2023-09-24T03:40:28.236Z,13.92
2023-09-24T03:42:56.397Z,13.85
2023-09-24T03:45:25.623Z,13.76
2023-09-24T03:47:54.390Z,13.74
2023-09-24T03:50:21.791Z,13.77
2023-09-24T03:52:50.793Z,13.89
2023-09-24T03:55:20.099Z,13.90
2023-09-24T03:57:48.790Z,13.82
2023-09-24T04:00:19.955Z,13.79
2023-09-24T04:02:50.051Z,13.81
2023-09-24T04:05:24.471Z,13.85
2023-09-24T04:07:55.012Z,13.73
2023-09-24T04:10:30.672Z,13.70
2023-09-24T04:13:01.399Z,13.69
2023-09-24T04:15:30.377Z,13.59
2023-09-24T04:17:59.163Z,13.59
2023-09-24T04:20:31.450Z,13.65
2023-09-24T04:23:00.485Z,13.82
2023-09-24T04:25:28.509Z,13.77
2023-09-24T04:27:56.224Z,13.77
2023-09-24T04:30:25.550Z,13.76
2023-09-24T04:32:54.689Z,13.77
2023-09-24T04:35:22.691Z,13.77
2023-09-24T04:37:51.020Z,13.76
2023-09-24T04:40:19.139Z,13.66
2023-09-24T04:42:47.405Z,13.71
2023-09-24T04:45:18.965Z,13.61
2023-09-24T04:47:46.887Z,13.58
2023-09-24T04:50:14.805Z,13.46
2023-09-24T04:52:45.987Z,13.44
2023-09-24T04:55:13.574Z,13.47
2023-09-24T04:57:40.475Z,13.53
2023-09-24T05:00:08.113Z,13.47
2023-09-24T05:02:35.070Z,13.39
2023-09-24T05:05:02.071Z,13.43
2023-09-24T05:07:31.495Z,13.47
2023-09-24T05:09:58.381Z,13.51
2023-09-24T05:12:25.457Z,13.60
2023-09-24T05:14:52.655Z,13.34
2023-09-24T05:17:19.646Z,13.46
2023-09-24T05:19:46.816Z,13.35
2023-09-24T05:22:13.736Z,13.47
2023-09-24T05:24:40.618Z,13.23
2023-09-24T05:27:07.504Z,13.14
2023-09-24T05:29:36.850Z,13.02
2023-09-24T05:32:04.576Z,13.27
2023-09-24T05:34:31.467Z,13.23
2023-09-24T05:36:59.327Z,13.22
2023-09-24T05:39:27.994Z,13.10
2023-09-24T05:41:54.970Z,13.20
2023-09-24T05:44:21.985Z,12.40
2023-09-24T05:46:49.066Z,12.40
2023-09-24T05:49:15.965Z,12.34
2023-09-24T05:51:42.883Z,11.93
2023-09-24T05:54:11.834Z,11.93
2023-09-24T05:56:38.896Z,12.16
2023-09-24T05:59:06.164Z,11.96
2023-09-24T06:01:33.314Z,11.91
2023-09-24T06:04:00.285Z,11.91
2023-09-24T06:06:27.264Z,11.96
2023-09-24T06:08:56.997Z,11.95
2023-09-24T06:11:24.722Z,12.03
2023-09-24T06:13:52.899Z,12.46
2023-09-24T06:16:19.820Z,12.16
2023-09-24T06:18:46.754Z,12.02
2023-09-24T06:21:17.720Z,11.77
2023-09-24T06:23:44.686Z,11.95
2023-09-24T06:26:11.880Z,12.00
2023-09-24T06:28:38.687Z,11.95
2023-09-24T06:31:05.980Z,11.92
2023-09-24T06:33:32.943Z,12.26
2023-09-24T06:36:04.276Z,12.51
2023-09-24T06:38:32.042Z,12.88
2023-09-24T06:41:05.482Z,12.80
2023-09-24T06:43:33.549Z,12.73
2023-09-24T06:46:03.401Z,13.01
2023-09-24T06:48:30.961Z,13.01
2023-09-24T06:51:10.187Z,12.89
2023-09-24T06:53:40.881Z,12.56
2023-09-24T06:56:10.296Z,13.30
2023-09-24T06:58:37.601Z,13.41
2023-09-24T07:01:05.308Z,13.79
2023-09-24T07:03:32.756Z,13.55
2023-09-24T07:06:01.320Z,13.84
2023-09-24T07:08:28.285Z,14.13
2023-09-24T07:11:23.239Z,13.88
2023-09-24T07:13:50.689Z,14.46
2023-09-24T07:16:20.736Z,14.92
2023-09-24T07:18:48.488Z,15.11
2023-09-24T07:21:31.023Z,15.04
2023-09-24T07:24:01.608Z,14.18
2023-09-24T07:26:29.333Z,14.38
2023-09-24T07:28:56.268Z,14.82
2023-09-24T07:31:27.213Z,15.10
2023-09-24T07:33:58.510Z,15.32
2023-09-24T07:38:55.400Z,15.65
2023-09-24T07:41:23.072Z,15.85
2023-09-24T07:43:50.301Z,16.07
2023-09-24T07:46:18.362Z,16.26
2023-09-24T07:48:46.578Z,16.47
2023-09-24T07:51:14.206Z,16.59
2023-09-24T07:53:42.027Z,16.53
2023-09-24T07:56:10.169Z,16.68
2023-09-24T07:58:38.870Z,16.78
2023-09-24T08:01:15.329Z,17.65
2023-09-24T08:03:46.149Z,17.30
2023-09-24T08:06:14.152Z,17.13
2023-09-24T08:08:53.016Z,17.25
2023-09-24T08:11:24.945Z,17.20
2023-09-24T08:13:54.130Z,17.32
2023-09-24T08:16:22.356Z,17.48
2023-09-24T08:18:51.598Z,17.62
2023-09-24T08:21:20.538Z,17.39
2023-09-24T08:23:48.361Z,17.50
2023-09-24T08:26:16.083Z,17.70
2023-09-24T08:28:43.339Z,17.68
2023-09-24T08:31:11.582Z,17.54
2023-09-24T08:33:39.086Z,17.88
2023-09-24T08:36:13.822Z,17.71
2023-09-24T08:38:40.880Z,17.59
2023-09-24T08:41:14.793Z,17.66
2023-09-24T08:43:44.118Z,17.81
2023-09-24T08:46:12.770Z,17.77
2023-09-24T08:48:42.039Z,18.11
2023-09-24T08:51:11.360Z,18.29
2023-09-24T08:53:41.895Z,18.22
2023-09-24T08:56:11.424Z,18.26
2023-09-24T08:58:40.381Z,18.44
2023-09-24T09:01:10.606Z,18.60
2023-09-24T09:03:38.758Z,18.32
2023-09-24T09:06:07.442Z,18.27
2023-09-24T09:08:54.676Z,18.57
2023-09-24T09:11:23.362Z,18.78
2023-09-24T09:13:51.116Z,18.69
2023-09-24T09:16:21.380Z,18.52
2023-09-24T09:19:01.960Z,18.51
2023-09-24T09:21:29.384Z,18.52
2023-09-24T09:23:57.002Z,18.59
2023-09-24T09:26:34.691Z,18.95
2023-09-24T09:29:05.729Z,19.27
2023-09-24T09:31:48.384Z,19.36
2023-09-24T09:34:15.313Z,19.34
2023-09-24T09:36:42.312Z,19.56
2023-09-24T09:39:09.163Z,19.76
2023-09-24T09:41:36.171Z,19.84
2023-09-24T09:44:06.869Z,19.92
2023-09-24T09:46:36.396Z,19.73
2023-09-24T09:49:11.440Z,19.76
2023-09-24T09:51:50.211Z,19.88
2023-09-24T09:54:22.254Z,19.80
2023-09-24T09:56:50.256Z,19.97
2023-09-24T09:59:17.814Z,19.87
2023-09-24T10:01:44.869Z,20.20
2023-09-24T10:04:12.984Z,20.31
2023-09-24T10:06:41.032Z,20.36
2023-09-24T10:09:35.694Z,20.28
2023-09-24T10:12:08.233Z,20.06
2023-09-24T10:14:40.680Z,19.93
2023-09-24T10:17:16.918Z,19.63
2023-09-24T10:19:54.346Z,19.77
2023-09-24T10:22:25.104Z,19.77
2023-09-24T10:24:52.056Z,19.80
2023-09-24T10:28:08.137Z,19.64
2023-09-24T10:31:13.268Z,19.59
2023-09-24T10:33:59.187Z,19.61
2023-09-24T10:36:31.439Z,19.60
2023-09-24T10:39:17.044Z,19.60
2023-09-24T10:42:13.028Z,19.53
2023-09-24T10:44:40.767Z,19.18
2023-09-24T10:47:27.607Z,19.56
2023-09-24T10:50:05.218Z,19.56
2023-09-24T10:52:55.322Z,19.51
2023-09-24T10:55:31.983Z,19.66
2023-09-24T10:58:20.740Z,19.22
2023-09-24T11:00:52.443Z,19.28
2023-09-24T11:03:19.980Z,19.22
2023-09-24T11:05:48.970Z,19.42
2023-09-24T11:08:17.757Z,19.64
2023-09-24T11:10:49.828Z,19.50
2023-09-24T11:13:17.300Z,19.43
2023-09-24T11:15:44.587Z,19.40
2023-09-24T11:18:14.992Z,19.60
2023-09-24T11:20:52.709Z,19.59
2023-09-24T11:23:20.302Z,19.63
2023-09-24T11:25:49.460Z,19.52
2023-09-24T11:28:17.149Z,19.62
2023-09-24T11:30:45.235Z,19.61
2023-09-24T11:33:23.978Z,19.55
2023-09-24T11:35:53.014Z,19.47
2023-09-24T11:38:34.628Z,19.53
2023-09-24T11:41:10.242Z,19.29
2023-09-24T11:43:38.379Z,19.41
2023-09-24T11:46:18.439Z,19.33
2023-09-24T11:48:46.479Z,19.31
2023-09-24T11:51:14.084Z,19.42
2023-09-24T11:53:41.130Z,19.39
2023-09-24T11:56:08.842Z,19.49
2023-09-24T11:58:35.879Z,19.65
2023-09-24T12:01:06.929Z,19.55
2023-09-24T12:03:34.230Z,19.58
2023-09-24T12:06:02.807Z,19.47
2023-09-24T12:08:29.648Z,19.30
2023-09-24T12:10:56.653Z,19.19
2023-09-24T12:13:23.728Z,19.14
2023-09-24T12:15:50.994Z,19.30
2023-09-24T12:18:18.204Z,19.19
2023-09-24T12:20:45.295Z,19.19
2023-09-24T12:23:12.767Z,19.11
2023-09-24T12:25:41.889Z,19.21
2023-09-24T12:28:10.255Z,19.12
2023-09-24T12:30:38.982Z,19.33
2023-09-24T12:33:09.654Z,19.35
2023-09-24T12:35:38.847Z,19.19
2023-09-24T12:38:05.691Z,19.30
2023-09-24T12:40:32.662Z,19.08
2023-09-24T12:42:59.465Z,19.18
2023-09-24T12:45:26.351Z,19.07
2023-09-24T12:47:53.426Z,19.33
2023-09-24T12:50:20.324Z,19.60
2023-09-24T12:52:47.281Z,19.52
2023-09-24T12:55:18.861Z,19.45
2023-09-24T12:57:47.148Z,19.59
2023-09-24T13:00:16.169Z,19.48
2023-09-24T13:02:48.874Z,19.58
2023-09-24T13:05:17.882Z,19.34
2023-09-24T13:07:46.133Z,19.46
2023-09-24T13:10:16.619Z,19.44
2023-09-24T13:12:45.558Z,19.63
2023-09-24T13:15:13.016Z,19.71
2023-09-24T13:17:41.456Z,19.80
2023-09-24T13:20:11.093Z,19.76
2023-09-24T13:22:38.232Z,19.97
2023-09-24T13:25:06.639Z,20.08
2023-09-24T13:27:35.587Z,19.83
2023-09-24T13:30:05.599Z,19.96
2023-09-24T13:32:37.544Z,20.04
2023-09-24T13:35:07.713Z,20.13
2023-09-24T13:37:35.611Z,20.32
2023-09-24T13:40:02.537Z,20.26
2023-09-24T13:42:30.589Z,20.44
2023-09-24T13:44:57.418Z,20.63
2023-09-24T13:47:24.194Z,20.70
2023-09-24T13:49:50.947Z,20.73
2023-09-24T13:52:17.748Z,20.83
2023-09-24T13:54:44.579Z,20.73
2023-09-24T13:57:12.555Z,20.91
2023-09-24T13:59:41.114Z,21.08
2023-09-24T14:02:09.224Z,21.17
2023-09-24T14:04:36.099Z,21.18
2023-09-24T14:07:03.554Z,21.30
2023-09-24T14:09:49.618Z,21.42
2023-09-24T14:12:22.743Z,21.59
2023-09-24T14:14:50.961Z,21.70
2023-09-24T14:17:18.279Z,21.75
2023-09-24T14:19:45.334Z,21.87
2023-09-24T14:22:12.608Z,21.97
2023-09-24T14:24:42.360Z,22.06
2023-09-24T14:27:10.416Z,22.17
2023-09-24T14:29:37.477Z,22.30
2023-09-24T14:32:05.315Z,22.52
2023-09-24T14:34:33.419Z,22.59
2023-09-24T14:37:00.323Z,22.67
2023-09-24T14:39:27.214Z,22.85
2023-09-24T14:41:54.210Z,22.77
2023-09-24T14:44:22.181Z,22.67
2023-09-24T14:46:49.037Z,22.92
2023-09-24T14:49:15.956Z,22.99
2023-09-24T14:51:43.323Z,23.02
2023-09-24T14:54:10.561Z,22.64
2023-09-24T14:56:37.739Z,22.37
2023-09-24T14:59:05.163Z,21.93
2023-09-24T15:01:33.292Z,21.78
2023-09-24T15:04:00.324Z,21.43
2023-09-24T15:06:31.996Z,21.16
2023-09-24T15:08:58.896Z,20.94
2023-09-24T15:11:25.788Z,20.95
2023-09-24T15:13:52.634Z,20.80
2023-09-24T15:16:19.659Z,20.78
2023-09-24T15:18:46.582Z,20.66
2023-09-24T15:21:14.483Z,20.77
2023-09-24T15:23:41.753Z,20.57
2023-09-24T15:26:09.218Z,20.50
2023-09-24T15:28:37.277Z,20.50
2023-09-24T15:31:04.130Z,20.47
2023-09-24T15:33:31.288Z,20.31
2023-09-24T15:35:58.971Z,20.35
2023-09-24T15:38:26.114Z,20.37
2023-09-24T15:40:56.304Z,20.33
2023-09-24T15:43:23.649Z,20.37
2023-09-24T15:45:50.716Z,20.20
2023-09-24T15:48:17.946Z,20.22
2023-09-24T15:50:49.550Z,20.16
2023-09-24T15:53:16.769Z,20.08
2023-09-24T15:55:45.633Z,20.03
2023-09-24T15:58:13.989Z,20.10
2023-09-24T16:00:41.140Z,19.97
2023-09-24T16:03:08.396Z,20.09
2023-09-24T16:05:35.502Z,20.02
2023-09-24T16:08:02.642Z,20.02
2023-09-24T16:10:31.221Z,20.05
2023-09-24T16:12:58.364Z,19.89
2023-09-24T16:15:25.772Z,19.93
2023-09-24T16:17:53.427Z,19.91
2023-09-24T16:20:20.809Z,19.77
2023-09-24T16:22:48.420Z,19.68
2023-09-24T16:25:15.407Z,19.74
2023-09-24T16:27:42.397Z,19.79
2023-09-24T16:30:10.545Z,19.78
2023-09-24T16:32:37.780Z,19.68
2023-09-24T16:35:05.104Z,19.67
2023-09-24T16:37:35.260Z,19.70
2023-09-24T16:40:02.414Z,19.56
2023-09-24T16:42:30.707Z,19.52
2023-09-24T16:44:58.792Z,19.52
2023-09-24T16:47:26.009Z,19.53
2023-09-24T16:49:53.026Z,19.48
2023-09-24T16:52:22.151Z,19.45
2023-09-24T16:54:48.981Z,19.51
2023-09-24T16:57:15.906Z,19.45
2023-09-24T16:59:42.758Z,19.39
2023-09-24T17:02:11.239Z,19.31
2023-09-24T17:04:38.572Z,19.30
2023-09-24T17:07:06.549Z,19.29
2023-09-24T17:09:33.514Z,19.25
2023-09-24T17:12:02.765Z,19.22
2023-09-24T17:14:29.891Z,19.25
2023-09-24T17:16:57.953Z,19.16
2023-09-24T17:19:27.011Z,19.17
2023-09-24T17:21:54.732Z,19.20
2023-09-24T17:24:25.806Z,19.15
2023-09-24T17:26:53.283Z,19.09
2023-09-24T17:29:21.603Z,19.03
2023-09-24T17:31:49.241Z,18.96
2023-09-24T17:34:17.708Z,18.90
2023-09-24T17:36:45.805Z,18.87
2023-09-24T17:39:14.610Z,18.84
2023-09-24T17:41:42.550Z,18.84
2023-09-24T17:44:11.706Z,18.79
2023-09-24T17:46:40.138Z,18.77
2023-09-24T17:49:07.258Z,18.77
2023-09-24T17:51:34.732Z,18.75
2023-09-24T17:54:02.439Z,18.75
2023-09-24T17:56:29.789Z,18.72
2023-09-24T17:58:56.838Z,18.71
2023-09-24T18:01:26.789Z,18.67
2023-09-24T18:03:55.111Z,18.63
2023-09-24T18:06:23.141Z,18.64
2023-09-24T18:08:50.877Z,18.62
2023-09-24T18:11:18.550Z,18.61
2023-09-24T18:13:48.582Z,18.58
2023-09-24T18:16:17.011Z,18.60
2023-09-24T18:18:44.470Z,18.60
2023-09-24T18:21:12.204Z,18.54
2023-09-24T18:23:39.799Z,18.51
2023-09-24T18:26:07.072Z,18.49
2023-09-24T18:28:34.793Z,18.51
2023-09-24T18:31:02.086Z,18.49
2023-09-24T18:33:31.069Z,18.45
2023-09-24T18:35:59.706Z,18.45
2023-09-24T18:38:27.535Z,18.42
2023-09-24T18:40:56.511Z,18.40
2023-09-24T18:43:28.604Z,18.36
2023-09-24T18:46:02.667Z,18.35
2023-09-24T18:48:30.675Z,18.36
2023-09-24T18:51:00.421Z,18.35
2023-09-24T18:53:27.365Z,18.37
2023-09-24T18:56:02.143Z,18.35
2023-09-24T18:58:29.983Z,18.28
2023-09-24T19:00:57.145Z,18.25
2023-09-24T19:03:24.427Z,18.18
2023-09-24T19:05:52.271Z,18.26
2023-09-24T19:08:19.835Z,18.25
2023-09-24T19:10:54.735Z,18.22
2023-09-24T19:13:23.152Z,18.23
2023-09-24T19:15:50.515Z,18.21
2023-09-24T19:18:18.273Z,18.20
2023-09-24T19:20:45.704Z,18.18
2023-09-24T19:23:12.638Z,18.17
2023-09-24T19:25:39.641Z,18.18
2023-09-24T19:28:06.621Z,18.13
2023-09-24T19:30:33.942Z,18.11
2023-09-24T19:33:01.804Z,18.04
2023-09-24T19:35:30.058Z,18.06
2023-09-24T19:37:57.001Z,18.12
2023-09-24T19:40:24.469Z,18.08
2023-09-24T19:42:51.420Z,17.97
2023-09-24T19:45:18.818Z,18.04
2023-09-24T19:47:46.062Z,18.06
2023-09-24T19:50:13.598Z,17.97
2023-09-24T19:52:42.575Z,18.00
2023-09-24T19:55:09.989Z,17.96
2023-09-24T19:57:37.844Z,17.96
2023-09-24T20:00:06.360Z,17.99
2023-09-24T20:02:39.760Z,17.97
2023-09-24T20:05:09.904Z,18.00
2023-09-24T20:07:42.149Z,17.97
2023-09-24T20:10:15.436Z,18.08
2023-09-24T20:12:42.428Z,18.08
2023-09-24T20:15:09.890Z,18.07
2023-09-24T20:17:38.159Z,18.12
2023-09-24T20:20:05.894Z,18.13
2023-09-24T20:22:33.446Z,17.95
2023-09-24T20:25:09.365Z,17.82
2023-09-24T20:27:36.955Z,17.79
2023-09-24T20:30:05.882Z,17.69
2023-09-24T20:32:35.083Z,17.53
2023-09-24T20:35:02.828Z,17.62
2023-09-24T20:37:30.557Z,17.67
2023-09-24T20:39:57.622Z,17.53
2023-09-24T20:42:25.103Z,17.43
2023-09-24T20:44:52.162Z,17.57
2023-09-24T20:47:24.984Z,17.49
2023-09-24T20:49:52.690Z,17.30
2023-09-24T20:52:21.359Z,17.32
2023-09-24T20:54:48.296Z,17.25
2023-09-24T20:57:15.994Z,17.17
2023-09-24T21:00:03.335Z,17.14
2023-09-24T21:02:33.290Z,17.23
2023-09-24T21:05:00.744Z,17.15
2023-09-24T21:07:33.101Z,17.16
2023-09-24T21:10:01.258Z,17.08
2023-09-24T21:12:34.425Z,16.97
2023-09-24T21:15:01.992Z,17.05
2023-09-24T21:17:32.435Z,17.06
2023-09-24T21:19:59.887Z,16.99
2023-09-24T21:22:26.841Z,17.00
2023-09-24T21:24:55.129Z,17.00
2023-09-24T21:27:23.213Z,16.94
2023-09-24T21:29:51.853Z,16.87
2023-09-24T21:32:18.677Z,16.85
2023-09-24T21:34:45.708Z,16.86
2023-09-24T21:37:16.990Z,16.81
2023-09-24T21:39:44.723Z,16.84
2023-09-24T21:42:12.983Z,16.84
2023-09-24T21:44:39.901Z,16.85
2023-09-24T21:47:06.810Z,16.85
2023-09-24T21:49:33.889Z,16.94
2023-09-24T21:52:02.606Z,17.01
2023-09-24T21:54:29.675Z,16.98
2023-09-24T21:56:57.021Z,16.95
2023-09-24T21:59:23.849Z,16.88
2023-09-24T22:01:53.182Z,16.88
2023-09-24T22:04:20.552Z,16.88
2023-09-24T22:09:14.427Z,16.83
2023-09-24T22:11:43.173Z,16.84
2023-09-24T22:14:11.713Z,16.77
2023-09-24T22:16:38.653Z,16.78
2023-09-24T22:19:05.628Z,16.73
2023-09-24T22:21:34.827Z,16.68
2023-09-24T22:24:01.986Z,16.81
2023-09-24T22:26:29.559Z,16.67
2023-09-24T22:28:56.436Z,16.60
2023-09-24T22:31:23.579Z,16.70
2023-09-24T22:33:50.952Z,16.63
2023-09-24T22:36:19.155Z,16.65
2023-09-24T22:38:46.300Z,16.62
2023-09-24T22:41:13.330Z,16.69
2023-09-24T22:43:40.288Z,16.68
2023-09-24T22:46:07.412Z,16.60
2023-09-24T22:48:34.434Z,16.65
2023-09-24T22:51:01.922Z,16.64
2023-09-24T22:53:28.765Z,16.57
2023-09-24T22:55:58.600Z,16.54
2023-09-24T22:58:25.845Z,16.57
2023-09-24T23:00:52.670Z,16.58
2023-09-24T23:03:19.663Z,16.53
2023-09-24T23:05:46.639Z,16.55
2023-09-24T23:08:13.492Z,16.55
2023-09-24T23:10:40.694Z,16.55
2023-09-24T23:13:09.020Z,16.54
2023-09-24T23:15:36.513Z,16.51
2023-09-24T23:18:03.700Z,16.46
2023-09-24T23:20:30.663Z,16.37
2023-09-24T23:22:57.479Z,16.42
2023-09-24T23:25:25.735Z,16.48
2023-09-24T23:27:52.663Z,16.44
2023-09-24T23:30:21.459Z,16.23
2023-09-24T23:32:48.616Z,16.26
2023-09-24T23:35:15.733Z,16.22
2023-09-24T23:37:45.348Z,16.20
2023-09-24T23:40:18.742Z,16.17
2023-09-24T23:42:46.427Z,16.05
2023-09-24T23:45:13.894Z,15.98
2023-09-24T23:47:41.617Z,15.71
2023-09-24T23:50:09.510Z,15.82
2023-09-24T23:52:38.380Z,15.80
2023-09-24T23:55:06.168Z,15.88
2023-09-24T23:57:32.994Z,15.88
